Terminal Aerodrome Forecast
Issued by NWS

Home | Current Version | Previous Version | Text Only | Print | Product List | Glossary On
Versions: 1 2 3 4 5 6 7 8 9 10 11 12 13 14 15 16 17
000
FTUS43 KICT 311126
TAFHUT
TAF
KHUT 311126Z 3112/0112 36015G22KT P6SM SCT020
      TEMPO 3112/3116 BKN020
     FM311600 02016G23KT P6SM SCT030 BKN250
     FM312300 05006KT P6SM SCT250
     FM010300 VRB03KT P6SM SCT250=

USA.gov is the U.S. government's official web portal to all federal, state and local government web resources and services.